createdAt,value
2023-01-23T00:00:38.007Z,944.86
2023-01-23T00:01:38.493Z,944.85
2023-01-23T00:02:39.077Z,944.85
2023-01-23T00:03:39.431Z,944.89
2023-01-23T00:04:39.999Z,944.88
2023-01-23T00:05:40.496Z,944.85
2023-01-23T00:06:41.420Z,944.88
2023-01-23T00:07:41.612Z,944.84
2023-01-23T00:08:42.235Z,944.85
2023-01-23T00:09:43.168Z,944.84
2023-01-23T00:10:43.704Z,944.86
2023-01-23T00:11:44.731Z,944.9
2023-01-23T00:12:45.397Z,944.91
2023-01-23T00:13:45.935Z,944.89
2023-01-23T00:14:46.739Z,944.86
2023-01-23T00:15:47.320Z,944.86
2023-01-23T00:16:47.771Z,944.91
2023-01-23T00:17:48.270Z,944.88
2023-01-23T00:18:49.187Z,944.87
2023-01-23T00:19:49.862Z,944.9
2023-01-23T00:20:50.761Z,944.92
2023-01-23T00:21:51.465Z,944.89
2023-01-23T00:22:51.853Z,944.94
2023-01-23T00:23:52.482Z,944.93
2023-01-23T00:24:53.223Z,944.94
2023-01-23T00:25:54.123Z,944.99
2023-01-23T00:26:54.477Z,945.06
2023-01-23T00:27:54.666Z,945.02
2023-01-23T00:28:55.155Z,944.99
2023-01-23T00:29:56.185Z,945.01
2023-01-23T00:30:57.030Z,945.01
2023-01-23T00:31:57.896Z,944.99
2023-01-23T00:32:58.876Z,944.99
2023-01-23T00:33:59.095Z,945.01
2023-01-23T00:34:59.399Z,945.02
2023-01-23T00:36:00.318Z,944.96
2023-01-23T00:37:01.254Z,944.96
2023-01-23T00:38:01.657Z,944.94
2023-01-23T00:39:02.628Z,944.94
2023-01-23T00:40:02.846Z,944.94
2023-01-23T00:41:03.466Z,944.95
2023-01-23T00:42:03.780Z,944.93
2023-01-23T00:43:03.986Z,944.94
2023-01-23T00:44:04.194Z,944.97
2023-01-23T00:45:05.063Z,945.01
2023-01-23T00:46:05.270Z,945.01
2023-01-23T00:47:05.693Z,945.06
2023-01-23T00:48:05.913Z,945.08
2023-01-23T00:49:06.287Z,945.07
2023-01-23T00:50:07.336Z,945.05
2023-01-23T00:51:07.719Z,945.01
2023-01-23T00:52:08.232Z,945.04
2023-01-23T00:53:09.049Z,945.02
2023-01-23T00:54:10.067Z,944.99
2023-01-23T00:55:10.557Z,945.02
2023-01-23T00:56:11.482Z,944.98
2023-01-23T00:57:12.106Z,944.99
2023-01-23T00:58:12.731Z,944.99
2023-01-23T00:59:13.361Z,945
2023-01-23T01:00:14.428Z,944.97
2023-01-23T01:01:15.395Z,944.95
2023-01-23T01:02:15.756Z,944.96
2023-01-23T01:03:16.246Z,944.95
2023-01-23T01:04:17.160Z,944.95
2023-01-23T01:05:17.496Z,944.96
2023-01-23T01:06:18.433Z,944.99
2023-01-23T01:07:19.340Z,944.93
2023-01-23T01:08:20.032Z,944.95
2023-01-23T01:09:20.951Z,944.97
2023-01-23T01:10:21.612Z,945.02
2023-01-23T01:11:22.297Z,945.02
2023-01-23T01:12:23.336Z,945.06
2023-01-23T01:13:23.515Z,945.1
2023-01-23T01:14:24.432Z,945.09
2023-01-23T01:15:24.779Z,945.07
2023-01-23T01:16:25.032Z,945.09
2023-01-23T01:17:25.903Z,945.09
2023-01-23T01:18:26.274Z,945.02
2023-01-23T01:19:27.208Z,945.04
2023-01-23T01:20:27.531Z,945.05
2023-01-23T01:21:27.742Z,945.02
2023-01-23T01:22:27.959Z,945.04
2023-01-23T01:23:28.084Z,945.06
2023-01-23T01:24:28.766Z,945.07
2023-01-23T01:25:29.672Z,945.06
2023-01-23T01:26:30.313Z,945.12
2023-01-23T01:27:30.642Z,945.11
2023-01-23T01:28:31.549Z,945.17
2023-01-23T01:29:32.198Z,945.08
2023-01-23T01:30:33.304Z,945.09
2023-01-23T01:31:33.866Z,945.06
2023-01-23T01:32:34.370Z,945.04
2023-01-23T01:33:34.778Z,945.06
2023-01-23T01:34:35.318Z,945.03
2023-01-23T01:35:35.758Z,945.05
2023-01-23T01:36:36.687Z,945.05
2023-01-23T01:37:37.336Z,945
2023-01-23T01:38:37.548Z,945.02
2023-01-23T01:39:37.753Z,944.99
2023-01-23T01:40:38.669Z,944.95
2023-01-23T01:41:38.883Z,944.95
2023-01-23T01:42:39.190Z,944.99
2023-01-23T01:43:39.304Z,945
2023-01-23T01:44:39.510Z,944.95
2023-01-23T01:45:40.543Z,944.94
2023-01-23T01:46:41.167Z,944.97
2023-01-23T01:47:41.429Z,944.94
2023-01-23T01:48:41.923Z,944.95
2023-01-23T01:49:42.127Z,944.88
2023-01-23T01:50:42.725Z,944.9
2023-01-23T01:51:42.922Z,944.93
2023-01-23T01:52:43.867Z,944.94
2023-01-23T01:53:44.274Z,944.9
2023-01-23T01:54:45.344Z,944.92
2023-01-23T01:55:45.825Z,944.85
2023-01-23T01:56:46.033Z,944.92
2023-01-23T01:57:46.408Z,944.93
2023-01-23T01:58:46.610Z,944.94
2023-01-23T01:59:46.800Z,944.99
2023-01-23T02:00:47.188Z,944.98
2023-01-23T02:01:47.408Z,944.99
2023-01-23T02:02:47.885Z,945
2023-01-23T02:03:48.015Z,945
2023-01-23T02:04:48.940Z,945.01
2023-01-23T02:05:49.970Z,945.05
2023-01-23T02:06:50.470Z,945.06
2023-01-23T02:07:50.672Z,945.04
2023-01-23T02:08:50.863Z,945.01
2023-01-23T02:09:51.800Z,944.97
2023-01-23T02:10:52.005Z,944.99
2023-01-23T02:11:52.242Z,945.02
2023-01-23T02:12:52.578Z,944.96
2023-01-23T02:13:52.842Z,944.97
2023-01-23T02:14:53.747Z,944.99
2023-01-23T02:15:54.069Z,945.04
2023-01-23T02:16:54.455Z,945.07
2023-01-23T02:17:54.721Z,945.04
2023-01-23T02:18:54.936Z,945.03
2023-01-23T02:19:55.426Z,944.92
2023-01-23T02:20:55.569Z,944.94
2023-01-23T02:21:56.547Z,944.95
2023-01-23T02:22:56.766Z,944.89
2023-01-23T02:23:57.177Z,944.89
2023-01-23T02:24:57.386Z,944.87
2023-01-23T02:25:57.755Z,944.86
2023-01-23T02:26:58.675Z,944.83
2023-01-23T02:27:59.439Z,944.84
2023-01-23T02:29:00.365Z,944.83
2023-01-23T02:30:01.299Z,944.85
2023-01-23T02:31:02.020Z,944.83
2023-01-23T02:32:02.630Z,944.84
2023-01-23T02:33:03.468Z,944.77
2023-01-23T02:34:03.616Z,944.78
2023-01-23T02:35:04.229Z,944.8
2023-01-23T02:36:04.959Z,944.82
2023-01-23T02:37:05.605Z,944.83
2023-01-23T02:38:06.225Z,944.83
2023-01-23T02:39:06.838Z,944.83
2023-01-23T02:40:07.740Z,944.81
2023-01-23T02:41:08.106Z,944.84
2023-01-23T02:42:08.728Z,944.83
2023-01-23T02:43:09.740Z,944.83
2023-01-23T02:44:10.143Z,944.81
2023-01-23T02:45:11.048Z,944.84
2023-01-23T02:46:12.142Z,944.86
2023-01-23T02:47:12.625Z,944.89
2023-01-23T02:48:13.288Z,944.87
2023-01-23T02:49:13.944Z,944.91
2023-01-23T02:50:14.585Z,944.93
2023-01-23T02:51:15.467Z,944.9
2023-01-23T02:52:16.141Z,945
2023-01-23T02:53:16.623Z,944.97
2023-01-23T02:54:17.034Z,944.99
2023-01-23T02:55:18.002Z,945.03
2023-01-23T02:56:18.498Z,945.03
2023-01-23T02:57:18.998Z,945.06
2023-01-23T02:58:20.034Z,945.13
2023-01-23T02:59:20.249Z,945.13
2023-01-23T03:00:21.461Z,945.2
2023-01-23T03:01:21.733Z,945.15
2023-01-23T03:02:22.061Z,945.18
2023-01-23T03:03:22.788Z,945.16
2023-01-23T03:04:23.632Z,945.13
2023-01-23T03:05:24.556Z,945.15
2023-01-23T03:06:25.583Z,945.09
2023-01-23T03:07:26.508Z,945.16
2023-01-23T03:08:27.000Z,945.11
2023-01-23T03:09:27.356Z,945.12
2023-01-23T03:10:28.319Z,945.09
2023-01-23T03:11:29.231Z,945.11
2023-01-23T03:12:30.161Z,945.1
2023-01-23T03:13:30.477Z,945.08
2023-01-23T03:14:30.634Z,945.12
2023-01-23T03:15:31.551Z,945.1
2023-01-23T03:16:31.940Z,945.09
2023-01-23T03:17:32.570Z,945.02
2023-01-23T03:18:34.636Z,945.06
2023-01-23T03:19:33.474Z,945.07
2023-01-23T03:20:33.744Z,945.02
2023-01-23T03:21:34.089Z,945.01
2023-01-23T03:22:34.322Z,945.04
2023-01-23T03:23:35.254Z,945.08
2023-01-23T03:24:35.389Z,945.03
2023-01-23T03:25:35.634Z,945
2023-01-23T03:26:35.840Z,945.07
2023-01-23T03:27:36.783Z,945.07
2023-01-23T03:28:37.539Z,945.14
2023-01-23T03:29:38.445Z,945.19
2023-01-23T03:30:39.377Z,945.15
2023-01-23T03:31:39.530Z,945.16
2023-01-23T03:32:40.485Z,945.1
2023-01-23T03:33:40.685Z,945.1
2023-01-23T03:34:41.367Z,945.1
2023-01-23T03:35:41.588Z,945.1
2023-01-23T03:36:42.625Z,945.07
2023-01-23T03:37:42.830Z,945.02
2023-01-23T03:38:43.820Z,945.04
2023-01-23T03:39:44.307Z,945
2023-01-23T03:40:44.543Z,944.99
2023-01-23T03:41:44.742Z,944.99
2023-01-23T03:42:45.667Z,944.99
2023-01-23T03:43:45.982Z,945.03
2023-01-23T03:44:46.374Z,945.02
2023-01-23T03:45:47.526Z,945
2023-01-23T03:46:47.666Z,945.03
2023-01-23T03:47:48.283Z,945
2023-01-23T03:48:48.931Z,944.98
2023-01-23T03:49:49.585Z,945.02
2023-01-23T03:50:50.119Z,945.06
2023-01-23T03:51:50.762Z,945.05
2023-01-23T03:52:51.156Z,945.09
2023-01-23T03:53:52.081Z,945.07
2023-01-23T03:54:52.919Z,945.12
2023-01-23T03:55:53.949Z,945.09
2023-01-23T03:56:54.158Z,945.12
2023-01-23T03:57:55.066Z,945.12
2023-01-23T03:58:56.103Z,945.13
2023-01-23T03:59:56.763Z,945.17
2023-01-23T04:00:57.750Z,945.16
2023-01-23T04:01:58.732Z,945.17
2023-01-23T04:02:59.230Z,945.17
2023-01-23T04:04:00.129Z,945.1
2023-01-23T04:05:00.841Z,945.12
2023-01-23T04:06:01.753Z,945.13
2023-01-23T04:07:02.484Z,945.16
2023-01-23T04:08:02.832Z,945.19
2023-01-23T04:09:03.040Z,945.15
2023-01-23T04:10:03.974Z,945.14
2023-01-23T04:11:04.391Z,945.13
2023-01-23T04:12:05.325Z,945.14
2023-01-23T04:13:05.623Z,945.13
2023-01-23T04:14:06.673Z,945.13
2023-01-23T04:15:07.547Z,945.12
2023-01-23T04:16:08.507Z,945.13
2023-01-23T04:17:08.660Z,945.11
2023-01-23T04:18:09.127Z,945.19
2023-01-23T04:19:09.756Z,945.2
2023-01-23T04:20:09.967Z,945.2
2023-01-23T04:21:10.853Z,945.23
2023-01-23T04:22:11.641Z,945.21
2023-01-23T04:23:12.577Z,945.25
2023-01-23T04:24:13.196Z,945.24
2023-01-23T04:25:14.020Z,945.24
2023-01-23T04:26:14.701Z,945.28
2023-01-23T04:27:15.613Z,945.25
2023-01-23T04:28:16.541Z,945.33
2023-01-23T04:29:17.579Z,945.29
2023-01-23T04:30:17.915Z,945.26
2023-01-23T04:31:18.613Z,945.3
2023-01-23T04:32:19.275Z,945.3
2023-01-23T04:33:19.430Z,945.32
2023-01-23T04:34:19.967Z,945.32
2023-01-23T04:35:20.072Z,945.33
2023-01-23T04:36:20.711Z,945.35
2023-01-23T04:37:21.047Z,945.34
2023-01-23T04:38:21.986Z,945.31
2023-01-23T04:39:22.188Z,945.39
2023-01-23T04:40:22.692Z,945.33
2023-01-23T04:41:23.005Z,945.34
2023-01-23T04:42:23.666Z,945.37
2023-01-23T04:43:23.854Z,945.36
2023-01-23T04:44:24.625Z,945.33
2023-01-23T04:45:25.298Z,945.31
2023-01-23T04:46:26.319Z,945.3
2023-01-23T04:47:26.641Z,945.29
2023-01-23T04:48:27.116Z,945.31
2023-01-23T04:49:27.481Z,945.3
2023-01-23T04:50:28.439Z,945.29
2023-01-23T04:51:28.800Z,945.28
2023-01-23T04:52:29.155Z,945.28
2023-01-23T04:53:29.522Z,945.3
2023-01-23T04:54:30.439Z,945.24
2023-01-23T04:55:30.556Z,945.24
2023-01-23T04:56:31.545Z,945.26
2023-01-23T04:57:31.778Z,945.25
2023-01-23T04:58:32.265Z,945.19
2023-01-23T04:59:33.362Z,945.21
2023-01-23T05:00:33.845Z,945.21
2023-01-23T05:01:34.519Z,945.18
2023-01-23T05:02:35.458Z,945.19
2023-01-23T05:03:35.515Z,945.18
2023-01-23T05:04:36.526Z,945.19
2023-01-23T05:05:37.343Z,945.19
2023-01-23T05:06:38.298Z,945.2
2023-01-23T05:07:39.316Z,945.15
2023-01-23T05:08:39.521Z,945.11
2023-01-23T05:09:40.601Z,945.14
2023-01-23T05:10:41.233Z,945.14
2023-01-23T05:11:41.547Z,945.2
2023-01-23T05:12:42.210Z,945.23
2023-01-23T05:13:42.837Z,945.26
2023-01-23T05:14:43.307Z,945.19
2023-01-23T05:15:43.974Z,945.2
2023-01-23T05:16:44.894Z,945.24
2023-01-23T05:17:45.918Z,945.22
2023-01-23T05:18:46.431Z,945.21
2023-01-23T05:19:46.932Z,945.24
2023-01-23T05:20:47.147Z,945.25
2023-01-23T05:21:48.089Z,945.3
2023-01-23T05:22:49.135Z,945.31
2023-01-23T05:23:49.569Z,945.31
2023-01-23T05:24:49.787Z,945.34
2023-01-23T05:25:49.890Z,945.38
2023-01-23T05:26:50.096Z,945.37
2023-01-23T05:27:51.122Z,945.39
2023-01-23T05:28:51.808Z,945.44
2023-01-23T05:29:52.150Z,945.43
2023-01-23T05:30:52.732Z,945.49
2023-01-23T05:31:52.850Z,945.46
2023-01-23T05:32:53.171Z,945.49
2023-01-23T05:33:53.640Z,945.45
2023-01-23T05:34:53.874Z,945.51
2023-01-23T05:35:54.636Z,945.48
2023-01-23T05:36:55.571Z,945.5
2023-01-23T05:37:55.685Z,945.47
2023-01-23T05:38:56.634Z,945.48
2023-01-23T05:39:56.865Z,945.51
2023-01-23T05:40:57.811Z,945.49
2023-01-23T05:41:58.016Z,945.5
2023-01-23T05:42:58.654Z,945.5
2023-01-23T05:43:59.631Z,945.56
2023-01-23T05:44:59.967Z,945.51
2023-01-23T05:46:00.401Z,945.52
2023-01-23T05:47:01.197Z,945.53
2023-01-23T05:48:01.563Z,945.47
2023-01-23T05:49:02.327Z,945.48
2023-01-23T05:50:02.594Z,945.53
2023-01-23T05:51:03.158Z,945.54
2023-01-23T05:52:03.403Z,945.56
2023-01-23T05:53:04.420Z,945.55
2023-01-23T05:54:04.657Z,945.54
2023-01-23T05:55:05.601Z,945.6
2023-01-23T05:56:06.474Z,945.62
2023-01-23T05:57:06.977Z,945.56
2023-01-23T05:58:07.913Z,945.52
2023-01-23T05:59:08.926Z,945.58
2023-01-23T06:00:09.268Z,945.56
2023-01-23T06:01:09.897Z,945.65
2023-01-23T06:02:10.110Z,945.66
2023-01-23T06:03:10.445Z,945.65
2023-01-23T06:04:10.746Z,945.67
2023-01-23T06:05:11.352Z,945.57
2023-01-23T06:06:11.730Z,945.54
2023-01-23T06:07:12.659Z,945.5
2023-01-23T06:08:13.247Z,945.53
2023-01-23T06:09:13.756Z,945.54
2023-01-23T06:10:14.245Z,945.54
2023-01-23T06:11:15.298Z,945.51
2023-01-23T06:12:15.932Z,945.53
2023-01-23T06:13:16.577Z,945.54
2023-01-23T06:14:17.499Z,945.52
2023-01-23T06:15:18.248Z,945.49
2023-01-23T06:16:18.294Z,945.49
2023-01-23T06:17:18.956Z,945.56
2023-01-23T06:18:20.050Z,945.6
2023-01-23T06:19:20.788Z,945.59
2023-01-23T06:20:21.370Z,945.5
2023-01-23T06:21:21.239Z,945.52
2023-01-23T06:22:21.917Z,945.52
2023-01-23T06:23:22.210Z,945.49
2023-01-23T06:24:22.847Z,945.52
2023-01-23T06:25:23.805Z,945.53
2023-01-23T06:26:23.946Z,945.53
2023-01-23T06:27:24.454Z,945.61
2023-01-23T06:28:24.655Z,945.59
2023-01-23T06:29:25.586Z,945.58
2023-01-23T06:30:26.634Z,945.59
2023-01-23T06:31:26.721Z,945.64
2023-01-23T06:32:27.096Z,945.66
2023-01-23T06:33:27.793Z,945.64
2023-01-23T06:34:28.264Z,945.65
2023-01-23T06:35:29.208Z,945.6
2023-01-23T06:36:29.592Z,945.58
2023-01-23T06:37:30.523Z,945.55
2023-01-23T06:38:30.845Z,945.57
2023-01-23T06:39:31.793Z,945.58
2023-01-23T06:40:32.437Z,945.56
2023-01-23T06:41:33.368Z,945.57
2023-01-23T06:42:34.304Z,945.62
2023-01-23T06:43:35.214Z,945.56
2023-01-23T06:44:36.258Z,945.55
2023-01-23T06:45:37.313Z,945.54
2023-01-23T06:46:37.384Z,945.57
2023-01-23T06:47:38.216Z,945.57
2023-01-23T06:48:38.807Z,945.58
2023-01-23T06:49:39.266Z,945.59
2023-01-23T06:50:39.481Z,945.56
2023-01-23T06:51:39.630Z,945.56
2023-01-23T06:52:39.843Z,945.64
2023-01-23T06:53:40.174Z,945.67
2023-01-23T06:54:41.084Z,945.68
2023-01-23T06:55:41.579Z,945.68
2023-01-23T06:56:42.312Z,945.69
2023-01-23T06:57:42.510Z,945.72
2023-01-23T06:58:43.439Z,945.73
2023-01-23T06:59:44.370Z,945.73
2023-01-23T07:00:44.729Z,945.67
2023-01-23T07:01:44.938Z,945.6
2023-01-23T07:02:45.905Z,945.57
2023-01-23T07:03:46.530Z,945.53
2023-01-23T07:04:47.424Z,945.54
2023-01-23T07:05:48.362Z,945.57
2023-01-23T07:06:48.502Z,945.58
2023-01-23T07:07:49.456Z,945.5
2023-01-23T07:08:50.508Z,945.54
2023-01-23T07:09:51.451Z,945.51
2023-01-23T07:10:51.679Z,945.46
2023-01-23T07:11:52.619Z,945.55
2023-01-23T07:12:53.261Z,945.53
2023-01-23T07:13:53.465Z,945.65
2023-01-23T07:14:54.109Z,945.66
2023-01-23T07:15:54.463Z,945.59
2023-01-23T07:16:54.863Z,945.55
2023-01-23T07:17:55.057Z,945.53
2023-01-23T07:18:56.072Z,945.49
2023-01-23T07:19:56.568Z,945.52
2023-01-23T07:20:56.840Z,945.51
2023-01-23T07:21:57.047Z,945.52
2023-01-23T07:22:57.404Z,945.51
2023-01-23T07:23:57.607Z,945.58
2023-01-23T07:24:57.807Z,945.68
2023-01-23T07:25:58.736Z,945.65
2023-01-23T07:26:59.588Z,945.76
2023-01-23T07:28:00.529Z,945.81
2023-01-23T07:29:00.758Z,945.88
2023-01-23T07:30:01.288Z,945.89
2023-01-23T07:31:02.554Z,945.8
2023-01-23T07:32:03.118Z,945.76
2023-01-23T07:33:03.514Z,945.71
2023-01-23T07:34:03.850Z,945.72
2023-01-23T07:35:04.312Z,945.8
2023-01-23T07:36:04.543Z,945.89
2023-01-23T07:37:05.007Z,945.85
2023-01-23T07:38:05.960Z,945.84
2023-01-23T07:39:07.045Z,945.85
2023-01-23T07:40:07.970Z,945.87
2023-01-23T07:41:08.166Z,945.82
2023-01-23T07:42:09.110Z,945.84
2023-01-23T07:43:09.376Z,945.87
2023-01-23T07:44:10.021Z,945.92
2023-01-23T07:45:10.998Z,945.91
2023-01-23T07:46:11.443Z,945.9
2023-01-23T07:47:12.326Z,945.94
2023-01-23T07:48:12.538Z,945.97
2023-01-23T07:49:13.607Z,945.93
2023-01-23T07:50:14.351Z,945.95
2023-01-23T07:51:14.769Z,945.91
2023-01-23T07:52:15.467Z,945.92
2023-01-23T07:53:15.699Z,945.97
2023-01-23T07:54:16.477Z,946.02
2023-01-23T07:55:17.139Z,946.02
2023-01-23T07:56:17.374Z,946.07
2023-01-23T07:57:17.792Z,946.05
2023-01-23T07:58:18.744Z,946.07
2023-01-23T07:59:19.651Z,946.05
2023-01-23T08:00:22.342Z,946.13
2023-01-23T08:01:21.103Z,946.11
2023-01-23T08:02:21.614Z,946.09
2023-01-23T08:03:22.438Z,946.09
2023-01-23T08:04:23.274Z,946.14
2023-01-23T08:05:23.796Z,946.1
2023-01-23T08:06:24.875Z,946.14
2023-01-23T08:07:25.041Z,946.13
2023-01-23T08:08:25.971Z,946.22
2023-01-23T08:09:26.375Z,946.28
2023-01-23T08:10:26.628Z,946.25
2023-01-23T08:11:27.141Z,946.26
2023-01-23T08:12:28.226Z,946.19
2023-01-23T08:13:28.439Z,946.21
2023-01-23T08:14:28.957Z,946.29
2023-01-23T08:15:29.169Z,946.3
2023-01-23T08:16:29.997Z,946.29
2023-01-23T08:17:30.376Z,946.27
2023-01-23T08:18:31.314Z,946.22
2023-01-23T08:19:31.671Z,946.24
2023-01-23T08:20:32.399Z,946.3
2023-01-23T08:21:32.616Z,946.33
2023-01-23T08:22:33.563Z,946.34
2023-01-23T08:23:34.530Z,946.32
2023-01-23T08:24:34.641Z,946.27
2023-01-23T08:25:34.842Z,946.27
2023-01-23T08:26:35.496Z,946.3
2023-01-23T08:27:35.654Z,946.31
2023-01-23T08:28:36.657Z,946.33
2023-01-23T08:29:37.613Z,946.37
2023-01-23T08:30:38.134Z,946.38
2023-01-23T08:31:38.899Z,946.38
2023-01-23T08:32:39.667Z,946.42
2023-01-23T08:33:40.570Z,946.45
2023-01-23T08:34:40.903Z,946.49
2023-01-23T08:35:41.676Z,946.51
2023-01-23T08:36:41.883Z,946.5
2023-01-23T08:37:42.501Z,946.47
2023-01-23T08:38:43.425Z,946.41
2023-01-23T08:39:44.460Z,946.42
2023-01-23T08:40:44.721Z,946.37
2023-01-23T08:41:45.053Z,946.37
2023-01-23T08:42:45.784Z,946.42
2023-01-23T08:43:46.611Z,946.44
2023-01-23T08:44:47.107Z,946.44
2023-01-23T08:45:48.092Z,946.45
2023-01-23T08:46:48.466Z,946.51
2023-01-23T08:47:48.721Z,946.45
2023-01-23T08:48:48.940Z,946.43
2023-01-23T08:49:49.295Z,946.44
2023-01-23T08:50:49.563Z,946.48
2023-01-23T08:51:49.956Z,946.42
2023-01-23T08:52:50.681Z,946.37
2023-01-23T08:53:50.966Z,946.42
2023-01-23T08:54:51.987Z,946.51
2023-01-23T08:55:52.199Z,946.51
2023-01-23T08:56:52.695Z,946.52
2023-01-23T08:57:53.267Z,946.49
2023-01-23T08:58:53.782Z,946.42
2023-01-23T08:59:54.004Z,946.51
2023-01-23T09:00:55.005Z,946.53
2023-01-23T09:01:55.739Z,946.48
2023-01-23T09:02:56.192Z,946.42
2023-01-23T09:03:56.625Z,946.44
2023-01-23T09:04:56.709Z,946.38
2023-01-23T09:05:57.247Z,946.35
2023-01-23T09:06:57.786Z,946.39
2023-01-23T09:07:59.366Z,946.43
2023-01-23T09:08:58.607Z,946.42
2023-01-23T09:09:58.741Z,946.4
2023-01-23T09:10:59.002Z,946.4
2023-01-23T09:11:59.529Z,946.38
2023-01-23T09:12:59.757Z,946.36
2023-01-23T09:14:00.725Z,946.36
2023-01-23T09:15:01.035Z,946.43
2023-01-23T09:16:01.554Z,946.5
2023-01-23T09:17:02.582Z,946.45
2023-01-23T09:18:02.912Z,946.46
2023-01-23T09:19:03.857Z,946.44
2023-01-23T09:20:04.191Z,946.47
2023-01-23T09:21:06.674Z,946.39
2023-01-23T09:22:06.331Z,946.34
2023-01-23T09:23:06.545Z,946.33
2023-01-23T09:24:07.529Z,946.34
2023-01-23T09:25:08.292Z,946.31
2023-01-23T09:26:08.644Z,946.33
2023-01-23T09:27:08.920Z,946.35
2023-01-23T09:28:09.362Z,946.32
2023-01-23T09:29:09.585Z,946.32
2023-01-23T09:30:09.795Z,946.31
2023-01-23T09:31:10.222Z,946.34
2023-01-23T09:32:10.694Z,946.36
2023-01-23T09:33:10.939Z,946.36
2023-01-23T09:34:11.947Z,946.33
2023-01-23T09:35:12.283Z,946.33
2023-01-23T09:36:12.748Z,946.32
2023-01-23T09:37:12.865Z,946.35
2023-01-23T09:38:13.297Z,946.4
2023-01-23T09:39:13.532Z,946.42
2023-01-23T09:40:14.579Z,946.45
2023-01-23T09:41:15.555Z,946.44
2023-01-23T09:42:16.528Z,946.36
2023-01-23T09:43:17.192Z,946.39
2023-01-23T09:44:17.932Z,946.35
2023-01-23T09:45:18.849Z,946.34
2023-01-23T09:46:19.847Z,946.33
2023-01-23T09:47:20.497Z,946.32
2023-01-23T09:48:20.892Z,946.34
2023-01-23T09:49:21.534Z,946.3
2023-01-23T09:50:22.875Z,946.33
2023-01-23T09:51:22.832Z,946.3
2023-01-23T09:52:23.295Z,946.35
2023-01-23T09:53:23.718Z,946.32
2023-01-23T09:54:23.951Z,946.34
2023-01-23T09:55:24.599Z,946.33
2023-01-23T09:56:25.585Z,946.32
2023-01-23T09:57:26.390Z,946.36
2023-01-23T09:58:26.727Z,946.37
2023-01-23T09:59:27.179Z,946.33
2023-01-23T10:00:27.464Z,946.36
2023-01-23T10:01:27.784Z,946.34
2023-01-23T10:02:28.722Z,946.34
2023-01-23T10:03:29.189Z,946.32
2023-01-23T10:04:29.433Z,946.24
2023-01-23T10:05:30.463Z,946.25
2023-01-23T10:06:30.945Z,946.27
2023-01-23T10:07:31.250Z,946.27
2023-01-23T10:08:31.470Z,946.29
2023-01-23T10:09:31.685Z,946.29
2023-01-23T10:10:32.319Z,946.25
2023-01-23T10:11:32.660Z,946.22
2023-01-23T10:12:32.903Z,946.23
2023-01-23T10:13:33.138Z,946.23
2023-01-23T10:14:35.300Z,946.26
2023-01-23T10:15:34.093Z,946.21
2023-01-23T10:16:48.691Z,946.2
2023-01-23T10:17:34.897Z,946.22
2023-01-23T10:18:35.336Z,946.24
2023-01-23T10:19:35.855Z,946.22
2023-01-23T10:20:36.607Z,946.18
2023-01-23T10:21:37.333Z,946.16
2023-01-23T10:22:37.569Z,946.16
2023-01-23T10:23:38.486Z,946.17
2023-01-23T10:24:40.504Z,946.13
2023-01-23T10:27:42.670Z,946.12
2023-01-23T10:28:43.027Z,946.08
2023-01-23T10:29:43.695Z,946.15
2023-01-23T10:30:44.805Z,946.21
2023-01-23T10:31:45.131Z,946.18
2023-01-23T10:32:46.019Z,946.15
2023-01-23T10:33:46.548Z,946.13
2023-01-23T10:34:46.800Z,946.19
2023-01-23T10:35:47.204Z,946.17
2023-01-23T10:36:54.192Z,946.18
2023-01-23T10:37:48.704Z,946.17
2023-01-23T10:38:48.856Z,946.14
2023-01-23T10:39:49.833Z,946.11
2023-01-23T10:40:50.783Z,946.07
2023-01-23T10:41:54.249Z,946.03
2023-01-23T10:42:51.968Z,946.06
2023-01-23T10:43:52.334Z,945.97
2023-01-23T10:44:53.294Z,945.92
2023-01-23T10:45:53.827Z,945.96
2023-01-23T10:46:54.366Z,945.95
2023-01-23T10:47:55.623Z,945.94
2023-01-23T10:48:55.484Z,945.94
2023-01-23T10:49:56.430Z,945.92
2023-01-23T10:50:57.551Z,945.89
2023-01-23T10:51:58.087Z,945.86
2023-01-23T10:52:58.301Z,945.83
2023-01-23T10:53:59.755Z,945.8
2023-01-23T10:54:59.839Z,945.83
2023-01-23T10:56:00.485Z,945.93
2023-01-23T10:57:00.978Z,945.91
2023-01-23T10:58:01.559Z,945.92
2023-01-23T10:59:01.872Z,945.89
2023-01-23T11:00:02.624Z,945.85
2023-01-23T11:01:02.973Z,945.83
2023-01-23T11:02:03.349Z,945.77
2023-01-23T11:03:04.343Z,945.81
2023-01-23T11:04:04.289Z,945.85
2023-01-23T11:05:04.594Z,945.81
2023-01-23T11:06:04.767Z,945.76
2023-01-23T11:07:05.232Z,945.71
2023-01-23T11:08:05.696Z,945.71
2023-01-23T11:09:06.099Z,945.73
2023-01-23T11:10:06.769Z,945.75
2023-01-23T11:11:07.001Z,945.75
2023-01-23T11:12:07.215Z,945.73
2023-01-23T11:13:07.829Z,945.73
2023-01-23T11:14:08.869Z,945.72
2023-01-23T11:15:09.070Z,945.68
2023-01-23T11:16:09.469Z,945.7
2023-01-23T11:17:09.695Z,945.66
2023-01-23T11:18:10.464Z,945.63
2023-01-23T11:19:11.202Z,945.64
2023-01-23T11:20:11.452Z,945.63
2023-01-23T11:21:12.121Z,945.61
2023-01-23T11:22:12.868Z,945.63
2023-01-23T11:23:13.087Z,945.62
2023-01-23T11:24:13.339Z,945.61
2023-01-23T11:25:13.890Z,945.57
2023-01-23T11:26:13.985Z,945.6
2023-01-23T11:27:14.675Z,945.63
2023-01-23T11:28:15.334Z,945.64
2023-01-23T11:29:16.406Z,945.61
2023-01-23T11:30:17.078Z,945.59
2023-01-23T11:31:17.474Z,945.62
2023-01-23T11:32:18.220Z,945.62
2023-01-23T11:33:19.090Z,945.61
2023-01-23T11:34:19.093Z,945.57
2023-01-23T11:35:19.545Z,945.56
2023-01-23T11:36:19.961Z,945.55
2023-01-23T11:37:20.151Z,945.56
2023-01-23T11:38:30.165Z,945.53
2023-01-23T11:39:30.099Z,945.58
2023-01-23T11:40:30.332Z,945.59
2023-01-23T11:41:30.564Z,945.52
2023-01-23T11:42:31.508Z,945.51
2023-01-23T11:43:32.160Z,945.57
2023-01-23T11:44:41.475Z,945.56
2023-01-23T11:45:33.373Z,945.49
2023-01-23T11:46:33.819Z,945.47
2023-01-23T11:47:34.504Z,945.48
2023-01-23T11:48:35.610Z,945.44
2023-01-23T11:49:35.673Z,945.37
2023-01-23T11:50:41.076Z,945.44
2023-01-23T11:51:36.238Z,945.44
2023-01-23T11:52:36.479Z,945.45
2023-01-23T11:53:42.813Z,945.42
2023-01-23T11:54:37.604Z,945.39
2023-01-23T11:55:38.587Z,945.35
2023-01-23T11:56:39.551Z,945.35
2023-01-23T11:57:39.774Z,945.33
2023-01-23T11:58:49.282Z,945.31
2023-01-23T11:59:41.640Z,945.28
2023-01-23T12:00:42.612Z,945.24
2023-01-23T12:01:49.211Z,945.22
2023-01-23T12:02:44.545Z,945.25
2023-01-23T12:03:45.386Z,945.2
2023-01-23T12:04:46.152Z,945.19
2023-01-23T12:05:46.389Z,945.17
2023-01-23T12:06:46.731Z,945.2
2023-01-23T12:07:47.377Z,945.23
2023-01-23T12:08:48.307Z,945.18
2023-01-23T12:09:48.463Z,945.18
2023-01-23T12:10:48.658Z,945.21
2023-01-23T12:11:49.610Z,945.25
2023-01-23T12:12:50.154Z,945.2
2023-01-23T12:13:51.143Z,945.19
2023-01-23T12:14:51.423Z,945.16
2023-01-23T12:15:52.142Z,945.12
2023-01-23T12:16:52.754Z,945.12
2023-01-23T12:17:53.293Z,945.05
2023-01-23T12:18:54.149Z,945.05
2023-01-23T12:19:54.341Z,944.96
2023-01-23T12:20:55.310Z,945.01
2023-01-23T12:21:55.519Z,944.95
2023-01-23T12:22:56.150Z,944.99
2023-01-23T12:23:56.292Z,944.96
2023-01-23T12:24:56.548Z,944.96
2023-01-23T12:25:57.077Z,944.94
2023-01-23T12:26:57.389Z,944.91
2023-01-23T12:27:58.335Z,944.95
2023-01-23T12:28:59.226Z,944.95
2023-01-23T12:29:59.690Z,944.92
2023-01-23T12:31:00.189Z,944.84
2023-01-23T12:32:00.863Z,944.85
2023-01-23T12:33:00.942Z,944.85
2023-01-23T12:34:01.357Z,944.88
2023-01-23T12:35:02.009Z,944.87
2023-01-23T12:36:02.255Z,944.84
2023-01-23T12:37:11.995Z,944.81
2023-01-23T12:38:02.718Z,944.83
2023-01-23T12:39:02.931Z,944.86
2023-01-23T12:40:03.357Z,944.82
2023-01-23T12:41:04.350Z,944.81